KGRF

Gray AAF Airport

Fort Lewis/Tacoma, Washington, USA
METAR KGRF 141658Z AUTO 00000KT 10SM OVC140 05/05 A2959 RMK AO2 SLP025 T00480048 $
Observed Flight Rules
Dec-14 @ 16:58 UTC (an hour ago) Visual Flight Rules
Visibility Clouds
10 miles
  • Overcast at 14,000' AGL
Temperatures Readings
Current 5°C / 41°F
Dewpoint 5°C / 41°F
Humidity 100%
Altimeter 29.59" Hg
Pressure 1002.5 hPa
Elevation 92
METAR KGRF 141658Z AUTO 00000KT 10SM OVC140 05/05 A2959 RMK AO2 SLP025 T00480048 $
Observed Flight Rules
Dec-14 @ 16:58 UTC
(an hour ago)
VFR
Clouds
  • Overcast at 14,000' AGL
Temperature Dewpoint
5°C / 41°F 5°C / 41°F
Humidity Altimeter Pressure
100% 29.59" Hg 1002.5 hPa